Villa Grove, Colorado
Current Conditions -  °F | °C
As of 8:34 PM on Wednesday 22 Oct 2014 (Local Time) from K04V Reporting Station
Overcast Overcast  
Wind Chill: 45°   Ceiling: 10000
Heat Index: 48°   Visibility: 10mi
Dew Point: 34°   Wind: 8mph
Humidity: 57%   Direction: 20°NNE
Pressure: 30.29"   Gusts: NA
Location:  38.25°N, 105.95°W
Report Text: K04V 230234Z AUTO 02007KT 10SM OVC100 09/01 A3029 RMK AO2
Loading
Personal Weather Stations






























Interactive Weather Map
Tropical Storm Tracking
New forecast layout! Learn more

10-Day Weather Forecast

Advertisements
Track Severe Weather on mobile